createdAt,value
2018-09-06T00:04:28.890Z,11.22
2018-09-06T00:09:23.294Z,10.90
2018-09-06T00:14:17.137Z,10.03
2018-09-06T00:19:10.206Z,10.78
2018-09-06T00:24:03.191Z,10.53
2018-09-06T00:28:56.217Z,9.70
2018-09-06T00:33:49.159Z,11.65
2018-09-06T00:38:42.283Z,12.43
2018-09-06T00:43:35.371Z,11.10
2018-09-06T00:48:28.472Z,12.25
2018-09-06T00:53:21.490Z,13.40
2018-09-06T00:58:14.493Z,11.90
2018-09-06T01:03:07.572Z,11.12
2018-09-06T01:08:00.623Z,11.12
2018-09-06T01:12:53.632Z,8.83
2018-09-06T01:17:46.882Z,11.22
2018-09-06T01:22:39.852Z,11.85
2018-09-06T01:27:32.971Z,12.03
2018-09-06T01:32:25.912Z,11.12
2018-09-06T01:37:18.939Z,12.95
2018-09-06T01:42:11.926Z,13.88
2018-09-06T01:47:04.868Z,11.85
2018-09-06T01:51:57.833Z,13.03
2018-09-06T01:56:51.078Z,12.80
2018-09-06T02:01:44.118Z,11.45
2018-09-06T02:06:37.118Z,10.50
2018-09-06T02:11:30.072Z,11.55
2018-09-06T02:16:23.004Z,12.30
2018-09-06T02:21:16.085Z,8.95
2018-09-06T02:26:09.190Z,10.72
2018-09-06T02:31:02.325Z,10.30
2018-09-06T02:35:55.241Z,12.78
2018-09-06T02:40:48.266Z,10.88
2018-09-06T02:45:42.568Z,9.13
2018-09-06T02:50:40.914Z,10.70
2018-09-06T02:55:34.177Z,10.98
2018-09-06T03:00:28.563Z,11.45
2018-09-06T03:05:21.955Z,10.98
2018-09-06T03:10:14.945Z,12.45
2018-09-06T03:15:08.005Z,12.65
2018-09-06T03:20:01.069Z,11.38
2018-09-06T03:24:54.275Z,13.85
2018-09-06T03:29:47.449Z,13.32
2018-09-06T03:34:40.490Z,13.08
2018-09-06T03:39:33.515Z,13.93
2018-09-06T03:44:26.621Z,12.23
2018-09-06T03:49:19.741Z,12.05
2018-09-06T03:54:12.859Z,12.47
2018-09-06T03:59:05.971Z,13.22
2018-09-06T04:03:59.213Z,12.43
2018-09-06T04:08:52.262Z,12.80
2018-09-06T04:13:45.255Z,13.22
2018-09-06T04:18:38.289Z,13.00
2018-09-06T04:23:31.478Z,12.82
2018-09-06T04:28:24.606Z,13.70
2018-09-06T04:33:17.811Z,13.60
2018-09-06T04:38:10.810Z,17.12
2018-09-06T04:43:03.818Z,16.52
2018-09-06T04:47:56.730Z,15.48
2018-09-06T04:52:49.797Z,17.37
2018-09-06T04:57:42.830Z,15.43
2018-09-06T05:02:35.752Z,14.70
2018-09-06T05:07:28.753Z,14.38
2018-09-06T05:12:21.808Z,15.15
2018-09-06T05:17:14.972Z,15.45
2018-09-06T05:22:08.075Z,14.95
2018-09-06T05:27:01.873Z,16.05
2018-09-06T05:31:55.103Z,14.23
2018-09-06T05:36:48.309Z,14.07
2018-09-06T05:41:41.910Z,15.58
2018-09-06T05:46:35.082Z,17.12
2018-09-06T05:51:28.263Z,15.72
2018-09-06T05:56:21.234Z,14.95
2018-09-06T06:01:14.680Z,15.78
2018-09-06T06:06:08.020Z,13.60
2018-09-06T06:11:01.157Z,16.57
2018-09-06T06:15:54.183Z,14.07
2018-09-06T06:20:47.247Z,14.33
2018-09-06T06:25:40.648Z,12.30
2018-09-06T06:30:33.635Z,11.88
2018-09-06T06:35:26.708Z,10.45
2018-09-06T06:40:20.327Z,11.43
2018-09-06T06:45:13.471Z,13.22
2018-09-06T06:50:07.171Z,14.23
2018-09-06T06:55:00.324Z,11.83
2018-09-06T06:59:53.416Z,10.82
2018-09-06T07:04:46.334Z,12.07
2018-09-06T07:09:39.431Z,13.13
2018-09-06T07:14:33.543Z,14.15
2018-09-06T07:19:26.601Z,13.90
2018-09-06T07:24:19.796Z,13.38
2018-09-06T07:29:13.059Z,14.75
2018-09-06T07:34:06.151Z,15.83
2018-09-06T07:38:59.243Z,15.00
2018-09-06T07:43:52.793Z,15.28
2018-09-06T07:48:45.908Z,17.52
2018-09-06T07:53:38.883Z,14.95
2018-09-06T07:58:32.070Z,19.32
2018-09-06T08:03:25.355Z,14.25
2018-09-06T08:08:18.502Z,15.32
2018-09-06T08:13:11.504Z,15.65
2018-09-06T08:18:04.767Z,13.45
2018-09-06T08:22:58.312Z,13.20
2018-09-06T08:27:51.472Z,14.20
2018-09-06T08:32:44.679Z,12.28
2018-09-06T08:37:37.734Z,11.05
2018-09-06T08:42:31.070Z,12.95
2018-09-06T08:47:26.305Z,13.90
2018-09-06T08:52:19.576Z,14.98
2018-09-06T08:57:12.719Z,15.03
2018-09-06T09:02:12.232Z,14.65
2018-09-06T09:07:05.326Z,13.65
2018-09-06T09:11:58.538Z,15.15
2018-09-06T09:16:51.613Z,16.37
2018-09-06T09:21:44.716Z,14.25
2018-09-06T09:26:37.843Z,15.78
2018-09-06T09:31:31.361Z,14.98
2018-09-06T09:36:24.358Z,15.93
2018-09-06T09:41:17.397Z,13.80
2018-09-06T09:51:02.779Z,13.55
2018-09-06T09:55:56.066Z,14.95
2018-09-06T10:00:49.147Z,13.93
2018-09-06T10:07:52.200Z,14.23
2018-09-06T10:12:45.319Z,14.15
2018-09-06T10:17:38.506Z,13.40
2018-09-06T10:22:32.193Z,14.10
2018-09-06T10:27:25.456Z,17.20
2018-09-06T10:32:18.585Z,14.00
2018-09-06T10:37:11.903Z,13.70
2018-09-06T10:42:05.599Z,13.45
2018-09-06T10:46:58.918Z,13.28
2018-09-06T10:51:52.119Z,13.62
2018-09-06T10:56:45.329Z,14.58
2018-09-06T11:01:38.489Z,13.43
2018-09-06T11:06:31.636Z,12.93
2018-09-06T11:11:24.893Z,15.18
2018-09-06T11:16:18.718Z,13.78
2018-09-06T11:21:11.807Z,14.40
2018-09-06T11:26:04.899Z,16.73
2018-09-06T11:30:57.926Z,11.63
2018-09-06T11:35:51.069Z,13.28
2018-09-06T11:40:44.274Z,13.38
2018-09-06T11:45:37.374Z,13.75
2018-09-06T11:50:30.495Z,12.98
2018-09-06T11:55:23.604Z,12.93
2018-09-06T12:00:16.970Z,12.88
2018-09-06T12:05:10.962Z,12.35
2018-09-06T12:10:04.408Z,13.10
2018-09-06T12:14:57.724Z,11.68
2018-09-06T12:19:51.039Z,12.58
2018-09-06T12:24:44.258Z,13.03
2018-09-06T12:29:37.590Z,10.48
2018-09-06T12:34:31.002Z,14.65
2018-09-06T12:39:24.140Z,13.55
2018-09-06T12:44:17.540Z,14.68
2018-09-06T12:49:11.606Z,16.05
2018-09-06T12:54:05.642Z,14.75
2018-09-06T12:58:58.824Z,11.70
2018-09-06T13:03:52.041Z,14.30
2018-09-06T13:08:45.060Z,15.65
2018-09-06T13:13:38.218Z,16.60
2018-09-06T13:18:31.431Z,16.07
2018-09-06T13:23:24.538Z,14.80
2018-09-06T13:28:17.662Z,18.20
2018-09-06T13:33:10.795Z,15.32
2018-09-06T13:38:03.950Z,16.20
2018-09-06T13:42:57.182Z,15.65
2018-09-06T13:47:50.234Z,16.17
2018-09-06T13:52:43.275Z,16.25
2018-09-06T13:57:36.494Z,14.93
2018-09-06T14:02:29.426Z,18.48
2018-09-06T14:07:22.462Z,17.17
2018-09-06T14:12:15.484Z,19.90
2018-09-06T14:17:08.568Z,19.77
2018-09-06T14:22:01.618Z,18.87
2018-09-06T14:26:54.717Z,19.12
2018-09-06T14:31:47.788Z,17.12
2018-09-06T14:36:42.048Z,16.50
2018-09-06T14:41:35.214Z,16.93
2018-09-06T14:46:29.333Z,16.05
2018-09-06T14:51:22.321Z,17.25
2018-09-06T14:56:15.446Z,17.77
2018-09-06T15:01:08.562Z,18.17
2018-09-06T15:06:02.760Z,17.10
2018-09-06T15:10:56.050Z,22.07
2018-09-06T15:15:49.280Z,16.80
2018-09-06T15:20:42.368Z,15.98
2018-09-06T15:25:35.437Z,16.32
2018-09-06T15:30:28.517Z,17.20
2018-09-06T15:35:21.904Z,16.40
2018-09-06T15:40:14.989Z,19.02
2018-09-06T15:45:08.291Z,17.17
2018-09-06T15:50:01.646Z,16.70
2018-09-06T15:54:54.863Z,19.12
2018-09-06T15:59:47.928Z,17.73
2018-09-06T16:04:40.927Z,17.80
2018-09-06T16:09:34.189Z,17.95
2018-09-06T16:14:27.315Z,17.77
2018-09-06T16:19:20.446Z,19.75
2018-09-06T16:24:13.619Z,18.12
2018-09-06T16:29:06.779Z,18.85
2018-09-06T16:33:59.792Z,20.50
2018-09-06T16:38:52.886Z,19.07
2018-09-06T16:43:45.993Z,23.47
2018-09-06T16:48:39.005Z,23.87
2018-09-06T16:53:31.979Z,21.45
2018-09-06T16:58:25.160Z,23.15
2018-09-06T17:03:18.230Z,24.80
2018-09-06T17:08:11.347Z,21.70
2018-09-06T17:13:04.762Z,20.55
2018-09-06T17:17:58.103Z,19.52
2018-09-06T17:22:51.223Z,19.92
2018-09-06T17:27:44.249Z,20.12
2018-09-06T17:32:39.356Z,20.25
2018-09-06T17:37:33.437Z,19.67
2018-09-06T17:42:28.127Z,19.82
2018-09-06T17:47:21.311Z,20.27
2018-09-06T17:52:14.523Z,18.85
2018-09-06T17:57:07.769Z,17.85
2018-09-06T18:02:01.143Z,19.48
2018-09-06T18:06:54.474Z,22.58
2018-09-06T18:11:47.679Z,17.35
2018-09-06T18:16:42.470Z,17.25
2018-09-06T18:21:35.847Z,18.75
2018-09-06T18:26:29.863Z,19.30
2018-09-06T18:31:23.571Z,17.37
2018-09-06T18:36:16.631Z,20.27
2018-09-06T18:41:10.238Z,16.93
2018-09-06T18:46:03.509Z,16.93
2018-09-06T18:50:56.499Z,16.25
2018-09-06T18:55:49.706Z,15.98
2018-09-06T19:00:42.975Z,17.12
2018-09-06T19:05:36.332Z,16.17
2018-09-06T19:10:30.075Z,14.98
2018-09-06T19:15:23.500Z,15.38
2018-09-06T19:20:17.067Z,15.95
2018-09-06T19:25:10.328Z,15.78
2018-09-06T19:30:08.426Z,21.20
2018-09-06T19:35:01.991Z,13.40
2018-09-06T19:39:55.327Z,16.35
2018-09-06T19:44:50.106Z,15.72
2018-09-06T19:49:43.435Z,15.60
2018-09-06T19:54:36.923Z,13.13
2018-09-06T19:59:29.910Z,17.17
2018-09-06T20:04:23.204Z,15.68
2018-09-06T20:09:16.253Z,16.73
2018-09-06T20:14:09.316Z,14.68
2018-09-06T20:19:02.537Z,14.93
2018-09-06T20:23:55.836Z,14.20
2018-09-06T20:28:48.947Z,15.25
2018-09-06T20:33:42.162Z,14.43
2018-09-06T20:38:35.347Z,18.25
2018-09-06T20:43:28.341Z,14.80
2018-09-06T20:48:21.575Z,17.37
2018-09-06T20:53:14.785Z,18.82
2018-09-06T20:58:08.180Z,16.60
2018-09-06T21:03:01.256Z,19.37
2018-09-06T21:07:54.451Z,16.62
2018-09-06T21:12:47.911Z,18.42
2018-09-06T21:17:40.938Z,17.17
2018-09-06T21:22:34.525Z,19.62
2018-09-06T21:27:27.898Z,16.23
2018-09-06T21:32:21.217Z,16.17
2018-09-06T21:37:14.376Z,16.23
2018-09-06T21:42:07.665Z,16.42
2018-09-06T21:47:00.738Z,15.70
2018-09-06T21:51:53.975Z,15.68
2018-09-06T21:56:47.339Z,15.95
2018-09-06T22:01:40.946Z,19.32
2018-09-06T22:06:34.535Z,17.92
2018-09-06T22:11:27.557Z,18.52
2018-09-06T22:16:20.584Z,19.70
2018-09-06T22:21:14.368Z,18.40
2018-09-06T22:26:07.407Z,18.73
2018-09-06T22:31:00.590Z,18.25
2018-09-06T22:35:53.825Z,19.17
2018-09-06T22:40:47.020Z,21.20
2018-09-06T22:45:40.095Z,21.95
2018-09-06T22:50:33.155Z,18.27
2018-09-06T22:55:26.895Z,21.10
2018-09-06T23:00:20.754Z,18.30
2018-09-06T23:05:14.265Z,18.77
2018-09-06T23:10:08.625Z,20.17
2018-09-06T23:15:01.632Z,19.27
2018-09-06T23:19:54.825Z,20.02
2018-09-06T23:24:47.834Z,20.45
2018-09-06T23:29:40.737Z,20.25
2018-09-06T23:34:36.173Z,21.45
2018-09-06T23:39:29.130Z,21.60
2018-09-06T23:44:23.324Z,20.82
2018-09-06T23:49:16.425Z,21.93
2018-09-06T23:54:09.646Z,26.12
2018-09-06T23:59:02.907Z,21.48
